• Join FlightAware (Why Join?)
  • Login
  • US Flag 
11:18PM EDT


 

Airport Tracker/Info


-or-


 

Live Flight TrackerFlight Track Log ✈ USC105 ✈ 01-Jul-2013 ✈ KBKL - KYIP

Flight Track Log - Related Links

Times and Time Zones

All times are in EDT time to prevent confusion due to time zone crossing. See the USC105 flight status page for this flight to view local times or setup timezone preferences in your user account.

Time Position Orientation Groundspeed Altitude Reporting Facility
EDT Latitude Longitude Course Direction KTS MPH feet Rate Location/Type
11:14PM 41.5606 -81.7014 333° Northwest 123 142 2,200  Level Cleveland Center
11:15PM 41.5894 -81.7297 324° Northwest 130 150 3,200 960 Climbing Cleveland Center
11:16PM 41.5994 -81.7800 285° West 149 171 4,200 960 Climbing Cleveland Center
11:17PM 41.6156 -81.8303 293° West 143 165 5,200 840 Climbing Cleveland Center
11:18PM 41.6317 -81.8806 293° West 146 168 6,000 360 Climbing Cleveland Center
11:19PM 41.6517 -81.9503 291° West 188 216 6,000  Level Cleveland Center
11:20PM 41.6694 -82.0175 290° West 189 217 6,000  Level Cleveland Center
11:21PM 41.6936 -82.0875 295° West 202 232 6,000  Level Cleveland Center
11:22PM 41.7178 -82.1603 294° West 199 229 6,100  Climbing Cleveland Center
11:23PM 41.7375 -82.2417 288° West 204 235 6,000 -60 Descending Cleveland Center
11:24PM 41.7592 -82.3117 293° West 204 235 6,000  Level Cleveland Center
11:25PM 41.7792 -82.3819 291° West 204 235 6,000  Level Cleveland Center
11:26PM 41.7989 -82.4519 291° West 203 234 6,000  Level Cleveland Center
11:27PM 41.8206 -82.5253 292° West 203 234 6,000  Level Cleveland Center
11:28PM 41.8361 -82.5953 287° West 202 232 6,000  Level Cleveland Center
11:29PM 41.8681 -82.6661 301° West 199 229 6,000  Level Cleveland Center
11:30PM 41.8981 -82.7283 303° West 200 230 6,000  Level Cleveland Center
11:31PM 41.9303 -82.7992 301° West 199 229 6,000  Level Cleveland Center
11:32PM 41.9519 -82.8586 296° West 200 230 6,000  Level Cleveland Center
11:33PM 41.9819 -82.9239 302° West 201 231 6,000 -300 Level Cleveland Center
11:34PM 42.0033 -82.9947 292° West 214 246 5,500 -600 Descending Cleveland Center
11:35PM 42.0247 -83.0736 290° West 226 260 4,900 -600 Descending Cleveland Center
11:36PM 42.0417 -83.1556 286° West 221 254 4,300 -480 Descending Cleveland Center
11:37PM 42.0564 -83.2400 283° West 225 259 4,000 -180 Descending Cleveland Center
11:38PM 42.0733 -83.3161 287° West 213 245 4,000  Level Cleveland Center
11:39PM 42.0903 -83.3925 287° West 205 236 4,000  Level Cleveland Center
11:40PM 42.1031 -83.4603 284° West 194 223 4,000  Level Cleveland Center
11:41PM 42.1181 -83.5308 286° West 179 206 4,000 -240 Level Cleveland Center
11:42PM 42.1311 -83.5931 286° West 173 199 3,500 -660 Descending Cleveland Center
11:43PM 42.1633 -83.6283 321° Northwest 141 162 2,700 -780 Descending Cleveland Center
11:44PM 42.1933 -83.5989 36° Northeast 129 148 2,000 -780 Descending Cleveland Center
11:45PM 42.2172 -83.5664 45° Northeast 122 140 1,300 -780 Descending Cleveland Center
11:47PM 42.2393 -83.5310 88° East  Level Estimated
11:54PM 42.2393 -83.5310 90° East  Level Estimated
11:55PM 42.2393 -83.5310 90° East  Level Estimated